createdAt,value
2019-04-06T00:00:13.922Z,9.27
2019-04-06T00:02:25.059Z,9.30
2019-04-06T00:04:32.466Z,9.32
2019-04-06T00:06:39.995Z,9.33
2019-04-06T00:08:47.316Z,9.31
2019-04-06T00:10:55.319Z,9.30
2019-04-06T00:13:02.795Z,9.29
2019-04-06T00:15:10.522Z,9.17
2019-04-06T00:17:17.962Z,9.26
2019-04-06T00:19:25.436Z,9.29
2019-04-06T00:21:32.877Z,9.22
2019-04-06T00:23:40.341Z,9.15
2019-04-06T00:25:47.782Z,9.20
2019-04-06T00:27:55.212Z,9.16
2019-04-06T00:30:02.553Z,9.10
2019-04-06T00:32:14.600Z,9.02
2019-04-06T00:34:22.001Z,9.00
2019-04-06T00:36:29.424Z,8.99
2019-04-06T00:38:36.909Z,9.03
2019-04-06T00:40:44.348Z,9.00
2019-04-06T00:42:51.782Z,8.94
2019-04-06T00:44:59.147Z,8.88
2019-04-06T00:47:06.559Z,8.99
2019-04-06T00:49:13.938Z,8.98
2019-04-06T00:51:21.296Z,8.94
2019-04-06T00:53:28.734Z,8.84
2019-04-06T00:55:36.093Z,8.88
2019-04-06T00:57:43.573Z,8.88
2019-04-06T00:59:50.993Z,8.86
2019-04-06T01:01:58.467Z,8.82
2019-04-06T01:04:05.934Z,8.79
2019-04-06T01:06:13.329Z,8.76
2019-04-06T01:08:20.725Z,8.69
2019-04-06T01:10:28.206Z,8.79
2019-04-06T01:12:35.577Z,8.75
2019-04-06T01:14:43.018Z,8.71
2019-04-06T01:16:50.420Z,8.73
2019-04-06T01:18:57.887Z,8.59
2019-04-06T01:21:05.247Z,8.54
2019-04-06T01:23:12.757Z,8.47
2019-04-06T01:25:20.181Z,8.41
2019-04-06T01:27:27.490Z,8.29
2019-04-06T01:29:34.863Z,8.32
2019-04-06T01:31:42.226Z,8.28
2019-04-06T01:33:49.613Z,8.43
2019-04-06T01:35:56.958Z,8.31
2019-04-06T01:38:04.309Z,8.16
2019-04-06T01:40:11.826Z,8.33
2019-04-06T01:42:19.228Z,8.13
2019-04-06T01:44:26.645Z,8.18
2019-04-06T01:46:33.980Z,8.12
2019-04-06T01:48:41.400Z,8.06
2019-04-06T01:50:48.716Z,7.98
2019-04-06T01:52:56.107Z,8.03
2019-04-06T01:55:03.503Z,8.20
2019-04-06T01:57:10.953Z,8.01
2019-04-06T01:59:18.435Z,8.08
2019-04-06T02:01:39.934Z,7.93
2019-04-06T02:03:47.311Z,8.01
2019-04-06T02:05:54.927Z,8.03
2019-04-06T02:08:02.542Z,7.86
2019-04-06T02:10:10.277Z,7.87
2019-04-06T02:12:17.624Z,7.83
2019-04-06T02:14:25.150Z,7.73
2019-04-06T02:16:32.546Z,7.86
2019-04-06T02:18:40.027Z,7.86
2019-04-06T02:20:47.415Z,7.88
2019-04-06T02:22:54.825Z,7.78
2019-04-06T02:25:02.199Z,7.57
2019-04-06T02:27:09.532Z,7.81
2019-04-06T02:29:17.010Z,7.71
2019-04-06T02:31:42.010Z,7.66
2019-04-06T02:34:07.914Z,7.65
2019-04-06T02:36:43.278Z,7.73
2019-04-06T02:39:24.870Z,7.52
2019-04-06T02:42:03.373Z,7.61
2019-04-06T02:44:10.800Z,7.57
2019-04-06T02:46:18.146Z,7.44
2019-04-06T02:48:25.520Z,7.46
2019-04-06T02:50:32.889Z,7.58
2019-04-06T02:52:40.256Z,7.51
2019-04-06T02:54:47.615Z,7.64
2019-04-06T02:56:55.083Z,7.48
2019-04-06T02:59:02.458Z,7.44
2019-04-06T03:01:09.893Z,7.41
2019-04-06T03:03:17.463Z,7.36
2019-04-06T03:05:24.807Z,7.37
2019-04-06T03:07:32.417Z,7.37
2019-04-06T03:09:39.758Z,7.24
2019-04-06T03:11:47.189Z,7.23
2019-04-06T03:13:54.572Z,7.27
2019-04-06T03:16:02.041Z,7.29
2019-04-06T03:18:09.770Z,7.34
2019-04-06T03:20:17.431Z,7.41
2019-04-06T03:22:25.039Z,7.30
2019-04-06T03:24:32.439Z,7.30
2019-04-06T03:26:39.981Z,7.24
2019-04-06T03:28:47.591Z,7.18
2019-04-06T03:30:55.992Z,7.09
2019-04-06T03:33:03.735Z,7.16
2019-04-06T03:35:11.650Z,7.14
2019-04-06T03:37:20.014Z,7.08
2019-04-06T03:39:27.367Z,7.05
2019-04-06T03:41:34.713Z,7.04
2019-04-06T03:43:42.158Z,7.19
2019-04-06T03:45:49.556Z,7.07
2019-04-06T03:47:57.006Z,6.95
2019-04-06T03:50:04.745Z,7.04
2019-04-06T03:52:12.265Z,6.93
2019-04-06T03:54:19.711Z,7.08
2019-04-06T03:56:27.150Z,7.05
2019-04-06T03:58:34.498Z,6.95
2019-04-06T04:00:41.905Z,7.02
2019-04-06T04:02:49.327Z,6.94
2019-04-06T04:04:56.701Z,7.00
2019-04-06T04:07:04.156Z,7.07
2019-04-06T04:09:11.740Z,6.92
2019-04-06T04:11:19.227Z,7.03
2019-04-06T04:13:26.595Z,7.02
2019-04-06T04:15:34.216Z,7.03
2019-04-06T04:17:41.686Z,6.93
2019-04-06T04:19:49.112Z,7.00
2019-04-06T04:21:57.430Z,6.97
2019-04-06T04:24:04.962Z,6.99
2019-04-06T04:26:12.460Z,7.09
2019-04-06T04:28:19.859Z,7.09
2019-04-06T04:30:32.892Z,6.96
2019-04-06T04:32:36.542Z,6.99
2019-04-06T04:34:44.045Z,7.06
2019-04-06T04:36:51.510Z,7.03
2019-04-06T04:38:58.909Z,7.08
2019-04-06T04:41:06.424Z,7.12
2019-04-06T04:43:13.842Z,7.05
2019-04-06T04:45:21.247Z,7.17
2019-04-06T04:47:28.871Z,7.12
2019-04-06T04:49:36.284Z,7.16
2019-04-06T04:51:43.818Z,7.15
2019-04-06T04:53:51.322Z,7.26
2019-04-06T04:55:58.863Z,7.21
2019-04-06T04:58:06.227Z,7.24
2019-04-06T05:00:14.643Z,7.26
2019-04-06T05:02:22.438Z,7.31
2019-04-06T05:04:29.977Z,7.33
2019-04-06T05:06:37.392Z,7.35
2019-04-06T05:08:44.797Z,7.39
2019-04-06T05:10:52.190Z,7.38
2019-04-06T05:12:59.616Z,7.38
2019-04-06T05:15:11.631Z,7.40
2019-04-06T05:17:19.000Z,7.45
2019-04-06T05:19:26.385Z,7.46
2019-04-06T05:21:33.763Z,7.51
2019-04-06T05:23:41.374Z,7.53
2019-04-06T05:25:48.758Z,7.58
2019-04-06T05:27:56.289Z,7.63
2019-04-06T05:30:03.744Z,7.60
2019-04-06T05:32:11.276Z,7.63
2019-04-06T05:34:18.672Z,7.66
2019-04-06T05:36:26.107Z,7.74
2019-04-06T05:38:33.456Z,7.74
2019-04-06T05:40:40.874Z,7.77
2019-04-06T05:42:48.373Z,7.79
2019-04-06T05:44:55.890Z,7.86
2019-04-06T05:47:03.286Z,7.92
2019-04-06T05:49:10.787Z,7.94
2019-04-06T05:51:18.178Z,7.98
2019-04-06T05:53:25.599Z,8.09
2019-04-06T05:55:33.136Z,8.10
2019-04-06T05:57:40.682Z,8.16
2019-04-06T05:59:48.162Z,8.20
2019-04-06T06:01:55.553Z,8.27
2019-04-06T06:04:02.971Z,8.31
2019-04-06T06:06:12.655Z,8.34
2019-04-06T06:08:19.921Z,8.38
2019-04-06T06:10:27.366Z,8.53
2019-04-06T06:12:34.873Z,8.55
2019-04-06T06:14:42.356Z,8.57
2019-04-06T06:16:50.160Z,8.62
2019-04-06T06:18:57.833Z,8.69
2019-04-06T06:21:05.488Z,8.80
2019-04-06T06:23:13.126Z,8.81
2019-04-06T06:25:20.665Z,8.91
2019-04-06T06:27:28.341Z,8.97
2019-04-06T06:29:35.872Z,9.02
2019-04-06T06:31:43.880Z,8.98
2019-04-06T06:33:51.348Z,9.14
2019-04-06T06:35:58.831Z,9.23
2019-04-06T06:38:06.536Z,9.38
2019-04-06T06:40:14.963Z,9.48
2019-04-06T06:42:22.352Z,9.59
2019-04-06T06:44:29.771Z,9.64
2019-04-06T06:46:37.349Z,9.78
2019-04-06T06:48:44.829Z,9.80
2019-04-06T06:50:52.235Z,9.87
2019-04-06T06:53:00.004Z,9.84
2019-04-06T06:55:08.035Z,9.99
2019-04-06T06:57:15.459Z,10.01
2019-04-06T06:59:23.111Z,10.13
2019-04-06T07:01:30.690Z,10.19
2019-04-06T07:03:38.244Z,10.33
2019-04-06T07:05:45.886Z,10.58
2019-04-06T07:07:53.300Z,10.55
2019-04-06T07:10:05.738Z,10.41
2019-04-06T07:12:09.942Z,10.62
2019-04-06T07:14:17.451Z,10.58
2019-04-06T07:16:24.974Z,10.62
2019-04-06T07:18:32.444Z,10.78
2019-04-06T07:20:39.969Z,10.94
2019-04-06T07:22:47.691Z,10.76
2019-04-06T07:24:55.293Z,11.10
2019-04-06T07:27:02.717Z,11.29
2019-04-06T07:29:11.225Z,11.23
2019-04-06T07:31:18.701Z,11.26
2019-04-06T07:33:26.155Z,11.28
2019-04-06T07:35:33.635Z,11.37
2019-04-06T07:37:41.055Z,11.65
2019-04-06T07:39:48.506Z,11.53
2019-04-06T07:41:55.897Z,11.80
2019-04-06T07:44:05.663Z,11.76
2019-04-06T07:46:12.990Z,11.84
2019-04-06T07:48:20.389Z,11.85
2019-04-06T07:50:27.916Z,11.90
2019-04-06T07:52:35.430Z,11.99
2019-04-06T07:54:42.945Z,12.20
2019-04-06T07:56:51.207Z,12.25
2019-04-06T07:58:58.760Z,12.34
2019-04-06T08:01:06.449Z,12.39
2019-04-06T08:03:13.920Z,12.50
2019-04-06T08:05:21.889Z,12.29
2019-04-06T08:07:29.294Z,12.31
2019-04-06T08:09:36.796Z,12.60
2019-04-06T08:11:45.120Z,12.65
2019-04-06T08:13:52.592Z,12.47
2019-04-06T08:16:00.077Z,12.89
2019-04-06T08:18:07.750Z,12.85
2019-04-06T08:20:15.491Z,13.24
2019-04-06T08:22:22.917Z,12.86
2019-04-06T08:24:30.473Z,12.84
2019-04-06T08:26:38.020Z,12.99
2019-04-06T08:28:45.470Z,13.21
2019-04-06T08:30:52.997Z,13.56
2019-04-06T08:33:00.846Z,13.33
2019-04-06T08:35:09.166Z,13.22
2019-04-06T08:37:17.065Z,13.04
2019-04-06T08:39:25.823Z,13.52
2019-04-06T08:41:33.532Z,13.64
2019-04-06T08:43:41.058Z,13.47
2019-04-06T08:45:48.802Z,13.45
2019-04-06T08:47:56.568Z,13.46
2019-04-06T08:50:04.788Z,13.39
2019-04-06T08:52:12.422Z,13.62
2019-04-06T08:54:20.099Z,13.91
2019-04-06T08:56:27.697Z,13.82
2019-04-06T08:58:35.191Z,14.03
2019-04-06T09:00:42.746Z,14.37
2019-04-06T09:02:50.248Z,14.18
2019-04-06T09:04:57.881Z,14.68
2019-04-06T09:07:05.410Z,14.63
2019-04-06T09:09:13.255Z,14.54
2019-04-06T09:11:20.879Z,14.13
2019-04-06T09:13:28.444Z,14.11
2019-04-06T09:15:36.120Z,14.26
2019-04-06T09:17:43.703Z,14.09
2019-04-06T09:19:51.305Z,14.27
2019-04-06T09:21:58.789Z,14.42
2019-04-06T09:24:06.411Z,14.42
2019-04-06T09:26:13.854Z,14.52
2019-04-06T09:28:21.533Z,14.61
2019-04-06T09:30:29.387Z,14.74
2019-04-06T09:32:37.034Z,15.15
2019-04-06T09:34:44.758Z,14.86
2019-04-06T09:36:52.248Z,14.91
2019-04-06T09:38:59.935Z,14.87
2019-04-06T09:41:07.453Z,14.74
2019-04-06T09:43:15.781Z,15.03
2019-04-06T09:45:43.284Z,14.89
2019-04-06T09:48:02.078Z,14.91
2019-04-06T09:50:25.668Z,15.37
2019-04-06T09:52:39.621Z,15.08
2019-04-06T09:54:55.498Z,15.63
2019-04-06T09:57:20.600Z,15.91
2019-04-06T09:59:47.952Z,15.89
2019-04-06T10:02:11.412Z,15.38
2019-04-06T10:04:36.434Z,15.54
2019-04-06T10:06:54.122Z,16.09
2019-04-06T10:09:13.059Z,15.89
2019-04-06T10:11:28.560Z,16.42
2019-04-06T10:13:53.741Z,15.89
2019-04-06T10:16:25.832Z,16.07
2019-04-06T10:18:52.246Z,16.64
2019-04-06T10:21:27.597Z,16.80
2019-04-06T10:23:52.611Z,16.29
2019-04-06T10:26:18.691Z,16.42
2019-04-06T10:28:36.099Z,16.95
2019-04-06T10:31:12.648Z,16.74
2019-04-06T10:33:27.706Z,17.36
2019-04-06T10:35:51.829Z,16.92
2019-04-06T10:38:24.083Z,17.20
2019-04-06T10:40:49.071Z,17.20
2019-04-06T10:43:17.605Z,16.75
2019-04-06T10:45:55.994Z,17.52
2019-04-06T10:48:28.030Z,17.40
2019-04-06T10:50:53.315Z,17.50
2019-04-06T10:53:25.518Z,17.61
2019-04-06T10:55:54.793Z,17.88
2019-04-06T10:58:27.057Z,17.05
2019-04-06T11:00:53.711Z,16.97
2019-04-06T11:03:19.938Z,17.16
2019-04-06T11:05:46.046Z,17.37
2019-04-06T11:08:08.456Z,17.63
2019-04-06T11:10:33.619Z,17.22
2019-04-06T11:13:12.392Z,17.46
2019-04-06T11:15:38.508Z,17.40
2019-04-06T11:18:04.629Z,17.62
2019-04-06T11:20:29.950Z,17.51
2019-04-06T11:22:55.190Z,17.69
2019-04-06T11:25:27.247Z,17.71
2019-04-06T11:27:53.310Z,17.86
2019-04-06T11:30:22.521Z,17.67
2019-04-06T11:32:45.486Z,17.72
2019-04-06T11:35:14.621Z,17.69
2019-04-06T11:37:32.721Z,17.81
2019-04-06T11:39:58.487Z,17.69
2019-04-06T11:42:37.000Z,17.86
2019-04-06T11:45:03.123Z,17.52
2019-04-06T11:47:25.675Z,17.97
2019-04-06T11:49:54.836Z,17.87
2019-04-06T11:52:13.772Z,17.62
2019-04-06T11:54:42.967Z,17.53
2019-04-06T11:57:04.769Z,17.55
2019-04-06T11:59:29.579Z,17.88
2019-04-06T12:01:47.327Z,17.88
2019-04-06T12:04:00.831Z,17.98
2019-04-06T12:06:25.827Z,18.11
2019-04-06T12:08:52.905Z,17.59
2019-04-06T12:11:21.992Z,17.75
2019-04-06T12:13:44.395Z,18.35
2019-04-06T12:16:15.630Z,17.97
2019-04-06T12:18:45.868Z,18.43
2019-04-06T12:21:15.067Z,18.35
2019-04-06T12:23:40.261Z,18.06
2019-04-06T12:25:56.963Z,17.98
2019-04-06T12:28:25.956Z,17.94
2019-04-06T12:31:01.583Z,17.85
2019-04-06T12:33:27.667Z,17.57
2019-04-06T12:35:53.797Z,17.62
2019-04-06T12:38:24.780Z,17.88
2019-04-06T12:40:49.967Z,17.78
2019-04-06T12:43:19.256Z,17.83
2019-04-06T12:45:54.780Z,17.82
2019-04-06T12:48:18.870Z,17.78
2019-04-06T12:50:51.478Z,17.65
2019-04-06T12:53:22.765Z,17.84
2019-04-06T12:55:48.889Z,18.19
2019-04-06T12:58:34.002Z,18.08
2019-04-06T13:00:59.355Z,17.89
2019-04-06T13:03:13.174Z,17.71
2019-04-06T13:05:36.272Z,17.18
2019-04-06T13:08:17.771Z,17.28
2019-04-06T13:10:30.373Z,17.34
2019-04-06T13:13:02.691Z,17.14
2019-04-06T13:15:38.343Z,17.20
2019-04-06T13:18:10.677Z,17.30
2019-04-06T13:20:43.290Z,17.23
2019-04-06T13:23:27.835Z,17.18
2019-04-06T13:25:46.242Z,17.03
2019-04-06T13:28:06.399Z,17.09
2019-04-06T13:30:33.038Z,17.10
2019-04-06T13:33:02.257Z,17.09
2019-04-06T13:35:25.902Z,17.24
2019-04-06T13:37:40.327Z,17.04
2019-04-06T13:40:15.884Z,16.92
2019-04-06T13:42:45.094Z,16.87
2019-04-06T13:45:02.079Z,16.83
2019-04-06T13:47:34.635Z,16.92
2019-04-06T13:49:50.364Z,16.85
2019-04-06T13:52:23.180Z,16.84
2019-04-06T13:54:48.696Z,16.90
2019-04-06T13:57:24.581Z,16.80
2019-04-06T13:59:57.227Z,16.84
2019-04-06T14:02:23.480Z,16.97
2019-04-06T14:04:40.993Z,16.94
2019-04-06T14:07:00.360Z,16.98
2019-04-06T14:09:28.300Z,16.85
2019-04-06T14:12:00.877Z,16.91
2019-04-06T14:14:26.075Z,16.85
2019-04-06T14:16:55.410Z,16.71
2019-04-06T14:19:14.641Z,16.72
2019-04-06T14:21:41.032Z,16.68
2019-04-06T14:24:10.189Z,16.76
2019-04-06T14:26:42.478Z,16.76
2019-04-06T14:29:10.133Z,16.77
2019-04-06T14:31:29.041Z,16.59
2019-04-06T14:33:54.175Z,16.60
2019-04-06T14:36:23.369Z,16.55
2019-04-06T14:38:52.507Z,16.54
2019-04-06T14:41:25.166Z,16.58
2019-04-06T14:43:51.349Z,16.58
2019-04-06T14:46:33.037Z,16.65
2019-04-06T14:49:22.554Z,16.53
2019-04-06T14:51:51.206Z,16.57
2019-04-06T14:54:08.922Z,16.56
2019-04-06T14:56:53.554Z,16.51
2019-04-06T14:59:18.573Z,16.46
2019-04-06T15:01:41.215Z,16.53
2019-04-06T15:03:55.015Z,16.43
2019-04-06T15:06:30.687Z,16.38
2019-04-06T15:09:01.023Z,16.36
2019-04-06T15:11:33.568Z,16.35
2019-04-06T15:13:48.838Z,16.35
2019-04-06T15:16:14.456Z,16.31
2019-04-06T15:18:50.101Z,16.37
2019-04-06T15:21:19.928Z,16.24
2019-04-06T15:23:41.028Z,16.28
2019-04-06T15:26:03.536Z,16.25
2019-04-06T15:28:28.838Z,16.26
2019-04-06T15:31:01.015Z,16.28
2019-04-06T15:33:26.605Z,16.21
2019-04-06T15:35:52.863Z,16.22
2019-04-06T15:38:34.333Z,16.22
2019-04-06T15:41:03.741Z,16.21
2019-04-06T15:43:37.608Z,16.12
2019-04-06T15:46:09.782Z,16.08
2019-04-06T15:48:45.419Z,16.06
2019-04-06T15:51:20.947Z,16.15
2019-04-06T15:53:34.342Z,16.12
2019-04-06T15:55:57.245Z,16.13
2019-04-06T15:58:26.519Z,16.07
2019-04-06T16:01:01.822Z,16.00
2019-04-06T16:03:19.445Z,15.96
2019-04-06T16:05:44.862Z,15.97
2019-04-06T16:08:26.249Z,15.87
2019-04-06T16:10:55.331Z,15.89
2019-04-06T16:13:21.948Z,15.78
2019-04-06T16:15:40.743Z,15.75
2019-04-06T16:18:22.261Z,15.68
2019-04-06T16:20:35.823Z,15.60
2019-04-06T16:23:04.987Z,15.48
2019-04-06T16:25:25.913Z,15.44
2019-04-06T16:27:52.954Z,15.37
2019-04-06T16:30:18.534Z,15.35
2019-04-06T16:33:00.323Z,15.31
2019-04-06T16:35:17.225Z,15.24
2019-04-06T16:37:52.819Z,15.22
2019-04-06T16:40:25.403Z,15.20
2019-04-06T16:43:01.167Z,15.08
2019-04-06T16:45:31.022Z,15.04
2019-04-06T16:47:56.507Z,15.01
2019-04-06T16:50:14.750Z,14.89
2019-04-06T16:52:42.410Z,14.91
2019-04-06T16:55:07.774Z,14.74
2019-04-06T16:57:30.286Z,14.80
2019-04-06T16:59:48.731Z,14.75
2019-04-06T17:02:25.539Z,14.67
2019-04-06T17:04:42.804Z,14.56
2019-04-06T17:07:03.426Z,14.63
2019-04-06T17:09:18.798Z,14.55
2019-04-06T17:12:00.481Z,14.43
2019-04-06T17:14:22.594Z,14.40
2019-04-06T17:16:48.026Z,14.30
2019-04-06T17:19:15.858Z,14.32
2019-04-06T17:21:32.145Z,14.30
2019-04-06T17:23:57.330Z,14.27
2019-04-06T17:26:30.008Z,14.22
2019-04-06T17:28:56.144Z,14.18
2019-04-06T17:31:37.617Z,14.05
2019-04-06T17:34:19.273Z,14.06
2019-04-06T17:36:49.175Z,14.06
2019-04-06T17:39:15.093Z,13.93
2019-04-06T17:41:38.729Z,13.95
2019-04-06T17:44:17.295Z,13.94
2019-04-06T17:46:42.531Z,13.91
2019-04-06T17:49:09.331Z,13.87
2019-04-06T17:51:47.786Z,13.74
2019-04-06T17:54:23.136Z,13.73
2019-04-06T17:56:58.623Z,13.68
2019-04-06T17:59:24.943Z,13.62
2019-04-06T18:02:03.464Z,13.60
2019-04-06T18:04:41.984Z,13.55
2019-04-06T18:07:23.974Z,13.54
2019-04-06T18:09:53.469Z,13.49
2019-04-06T18:12:20.838Z,13.47
2019-04-06T18:14:28.453Z,13.33
2019-04-06T18:16:37.617Z,13.34
2019-04-06T18:18:45.643Z,13.35
2019-04-06T18:20:53.248Z,13.28
2019-04-06T18:25:16.787Z,13.31
2019-04-06T18:27:24.284Z,13.21
2019-04-06T18:29:35.419Z,13.11
2019-04-06T18:31:52.750Z,13.16
2019-04-06T18:34:00.464Z,13.08
2019-04-06T18:36:08.631Z,13.02
2019-04-06T18:38:24.194Z,13.03
2019-04-06T18:40:31.804Z,12.96
2019-04-06T18:42:39.948Z,12.93
2019-04-06T18:44:47.554Z,12.88
2019-04-06T18:46:55.245Z,12.87
2019-04-06T18:49:03.253Z,12.78
2019-04-06T18:51:11.250Z,12.68
2019-04-06T18:53:19.367Z,12.59
2019-04-06T18:55:27.179Z,12.45
2019-04-06T18:57:34.740Z,12.35
2019-04-06T18:59:42.680Z,12.27
2019-04-06T19:01:50.795Z,12.12
2019-04-06T19:03:58.354Z,11.98
2019-04-06T19:06:06.113Z,11.98
2019-04-06T19:08:14.264Z,11.96
2019-04-06T19:10:22.047Z,11.95
2019-04-06T19:12:29.468Z,12.01
2019-04-06T19:14:37.224Z,11.85
2019-04-06T19:16:44.909Z,11.83
2019-04-06T19:18:53.154Z,11.82
2019-04-06T19:21:00.758Z,11.85
2019-04-06T19:23:08.426Z,11.94
2019-04-06T19:25:16.178Z,11.86
2019-04-06T19:27:23.818Z,11.85
2019-04-06T19:29:31.768Z,11.81
2019-04-06T19:31:39.375Z,11.74
2019-04-06T19:33:47.042Z,11.67
2019-04-06T19:35:55.106Z,11.79
2019-04-06T19:38:03.085Z,11.71
2019-04-06T19:40:11.720Z,11.76
2019-04-06T19:42:19.373Z,11.78
2019-04-06T19:44:27.205Z,11.84
2019-04-06T19:46:35.175Z,11.82
2019-04-06T19:48:43.665Z,11.83
2019-04-06T19:50:51.620Z,11.70
2019-04-06T19:53:00.090Z,11.71
2019-04-06T19:55:08.985Z,11.71
2019-04-06T19:57:16.613Z,11.74
2019-04-06T19:59:24.222Z,11.75
2019-04-06T20:01:32.021Z,11.63
2019-04-06T20:03:40.017Z,11.64
2019-04-06T20:05:47.570Z,11.44
2019-04-06T20:07:55.717Z,11.45
2019-04-06T20:10:03.558Z,11.36
2019-04-06T20:12:11.501Z,11.38
2019-04-06T20:14:19.083Z,11.35
2019-04-06T20:16:27.514Z,11.26
2019-04-06T20:18:35.058Z,11.21
2019-04-06T20:20:43.065Z,11.01
2019-04-06T20:22:50.615Z,11.04
2019-04-06T20:24:58.212Z,11.14
2019-04-06T20:27:05.930Z,11.29
2019-04-06T20:29:13.902Z,11.20
2019-04-06T20:31:21.572Z,11.20
2019-04-06T20:33:29.563Z,11.11
2019-04-06T20:35:37.292Z,11.05
2019-04-06T20:37:45.126Z,10.89
2019-04-06T20:39:52.755Z,11.02
2019-04-06T20:42:00.884Z,10.98
2019-04-06T20:44:09.153Z,11.07
2019-04-06T20:46:19.668Z,11.01
2019-04-06T20:48:25.953Z,11.03
2019-04-06T20:50:33.391Z,10.93
2019-04-06T20:52:40.990Z,10.99
2019-04-06T20:54:48.543Z,10.95
2019-04-06T20:56:58.069Z,11.06
2019-04-06T20:59:05.252Z,10.87
2019-04-06T21:01:13.032Z,11.04
2019-04-06T21:03:20.591Z,10.90
2019-04-06T21:05:28.159Z,10.94
2019-04-06T21:07:35.703Z,11.01
2019-04-06T21:09:46.034Z,10.99
2019-04-06T21:11:53.701Z,11.02
2019-04-06T21:14:01.174Z,10.99
2019-04-06T21:16:08.597Z,10.91
2019-04-06T21:18:16.560Z,11.02
2019-04-06T21:20:24.180Z,10.83
2019-04-06T21:22:31.698Z,10.91
2019-04-06T21:24:39.452Z,10.92
2019-04-06T21:26:47.131Z,10.85
2019-04-06T21:28:54.717Z,10.90
2019-04-06T21:31:02.320Z,10.89
2019-04-06T21:33:09.919Z,10.82
2019-04-06T21:35:17.992Z,10.80
2019-04-06T21:37:25.752Z,10.69
2019-04-06T21:39:33.438Z,10.68
2019-04-06T21:41:40.952Z,10.66
2019-04-06T21:43:49.426Z,10.62
2019-04-06T21:45:57.586Z,10.63
2019-04-06T21:48:05.837Z,10.58
2019-04-06T21:50:13.955Z,10.54
2019-04-06T21:52:21.435Z,10.54
2019-04-06T21:54:29.481Z,10.61
2019-04-06T21:56:37.470Z,10.65
2019-04-06T21:58:44.988Z,10.62
2019-04-06T22:00:55.369Z,10.48
2019-04-06T22:03:04.392Z,10.46
2019-04-06T22:05:12.365Z,10.44
2019-04-06T22:07:20.640Z,10.39
2019-04-06T22:09:28.777Z,10.34
2019-04-06T22:11:37.087Z,10.39
2019-04-06T22:13:45.210Z,10.36
2019-04-06T22:15:53.914Z,10.25
2019-04-06T22:18:01.369Z,10.33
2019-04-06T22:20:09.536Z,10.05
2019-04-06T22:22:17.145Z,10.00
2019-04-06T22:24:25.018Z,9.64
2019-04-06T22:26:32.837Z,9.66
2019-04-06T22:28:40.316Z,9.55
2019-04-06T22:30:47.760Z,9.32
2019-04-06T22:32:55.157Z,9.51
2019-04-06T22:35:02.650Z,9.30
2019-04-06T22:37:10.118Z,9.24
2019-04-06T22:39:17.744Z,9.20
2019-04-06T22:41:25.228Z,9.09
2019-04-06T22:43:32.820Z,9.08
2019-04-06T22:45:41.452Z,8.95
2019-04-06T22:47:49.493Z,9.00
2019-04-06T22:49:56.941Z,8.91
2019-04-06T22:52:04.380Z,8.79
2019-04-06T22:54:11.837Z,8.81
2019-04-06T22:56:19.272Z,8.74
2019-04-06T22:58:26.631Z,8.69
2019-04-06T23:00:50.261Z,8.61
2019-04-06T23:03:10.578Z,8.68
2019-04-06T23:05:26.886Z,8.61
2019-04-06T23:07:34.820Z,8.57
2019-04-06T23:09:42.872Z,8.60
2019-04-06T23:11:50.417Z,8.46
2019-04-06T23:13:57.842Z,8.37
2019-04-06T23:16:05.864Z,8.28
2019-04-06T23:18:13.945Z,8.24
2019-04-06T23:20:21.834Z,8.23
2019-04-06T23:22:29.525Z,8.22
2019-04-06T23:24:38.587Z,8.20
2019-04-06T23:26:46.561Z,8.12
2019-04-06T23:28:54.021Z,8.07
2019-04-06T23:31:01.686Z,7.99
2019-04-06T23:33:09.440Z,8.04
2019-04-06T23:35:16.903Z,8.02
2019-04-06T23:37:24.333Z,7.98
2019-04-06T23:39:32.107Z,7.91
2019-04-06T23:41:39.611Z,7.90
2019-04-06T23:43:47.082Z,7.91
2019-04-06T23:45:54.880Z,7.77
2019-04-06T23:48:03.044Z,7.87
2019-04-06T23:50:11.101Z,7.83
2019-04-06T23:52:19.512Z,7.85
2019-04-06T23:54:26.939Z,7.85
2019-04-06T23:56:35.059Z,8.15
2019-04-06T23:58:43.114Z,8.06
